Time;durP1;ratioP1;P1;durP2;ratioP2;P2;SDS_P1;SDS_P2;PMS_P1;PMS_P2;Temp;Humidity;BMP_temperature;BMP_pressure;BME280_temperature;BME280_humidity;BME280_pressure;Samples;Min_cycle;Max_cycle;Signal;HPM_P1;HPM_P2
2022/01/31 00:02:01;;;;;;;9.68;4.43;;;2.00;74.90;;;;;;4974283;28;20122;-67
2022/01/31 00:04:27;;;;;;;9.82;3.83;;;2.00;75.00;;;;;;4974479;28;20035;-67
2022/01/31 00:06:53;;;;;;;9.43;4.43;;;2.00;75.00;;;;;;4973578;28;20030;-68
2022/01/31 00:09:21;;;;;;;9.25;4.15;;;2.10;75.20;;;;;;4973493;28;20043;-68
2022/01/31 00:11:56;;;;;;;9.55;3.55;;;2.10;75.20;;;;;;4973982;28;20505;-69
2022/01/31 00:14:32;;;;;;;6.97;3.78;;;2.10;75.30;;;;;;4974285;28;20049;-67
2022/01/31 00:16:58;;;;;;;9.88;3.83;;;2.10;75.30;;;;;;4973390;28;20089;-67
2022/01/31 00:19:23;;;;;;;9.68;4.03;;;2.20;75.30;;;;;;4975090;28;20472;-68
2022/01/31 00:21:49;;;;;;;8.88;3.75;;;2.20;75.20;;;;;;4973757;28;20057;-68
2022/01/31 00:24:15;;;;;;;12.35;4.20;;;2.20;75.20;;;;;;4977869;28;20035;-67
2022/01/31 00:26:41;;;;;;;12.77;4.05;;;2.30;75.30;;;;;;4976600;28;20498;-67
2022/01/31 00:29:06;;;;;;;15.63;4.35;;;2.30;75.50;;;;;;4977804;28;20624;-67
2022/01/31 00:31:32;;;;;;;13.13;4.88;;;2.30;75.70;;;;;;4977480;28;20056;-67
2022/01/31 00:33:58;;;;;;;16.50;5.20;;;2.30;75.90;;;;;;4976847;28;20497;-66
2022/01/31 00:36:24;;;;;;;12.63;3.92;;;2.40;76.00;;;;;;4976808;28;20053;-68
2022/01/31 00:38:49;;;;;;;8.93;4.10;;;2.40;76.20;;;;;;4975971;28;20514;-67
2022/01/31 00:41:15;;;;;;;11.98;4.45;;;2.40;76.30;;;;;;4977526;28;20030;-66
2022/01/31 00:43:43;;;;;;;10.82;4.20;;;2.40;76.20;;;;;;4976684;28;20038;-67
2022/01/31 00:46:12;;;;;;;12.70;4.68;;;2.50;76.40;;;;;;4974448;28;20927;-67
2022/01/31 00:48:44;;;;;;;10.65;4.40;;;2.50;76.40;;;;;;4977996;28;20130;-66
2022/01/31 00:51:11;;;;;;;12.85;4.88;;;2.50;76.40;;;;;;4977181;28;20101;-68
2022/01/31 00:53:37;;;;;;;13.90;4.53;;;2.50;76.40;;;;;;4976500;28;20043;-68
2022/01/31 00:56:03;;;;;;;12.68;4.68;;;2.50;76.40;;;;;;4976636;28;20043;-68
2022/01/31 00:58:29;;;;;;;15.85;4.90;;;2.50;76.40;;;;;;4976762;28;20041;-66
2022/01/31 01:00:55;;;;;;;12.30;5.07;;;2.50;76.70;;;;;;4976437;28;20046;-67
2022/01/31 01:03:20;;;;;;;13.10;4.97;;;2.50;76.70;;;;;;4976923;28;20046;-68
2022/01/31 01:05:46;;;;;;;11.18;4.18;;;2.60;76.70;;;;;;4978341;28;20037;-67
2022/01/31 01:08:11;;;;;;;15.20;4.95;;;2.60;76.80;;;;;;4976179;28;20039;-67
2022/01/31 01:10:37;;;;;;;10.13;5.20;;;2.60;76.80;;;;;;4990654;28;20027;-67
2022/01/31 01:13:03;;;;;;;11.13;4.97;;;2.60;76.90;;;;;;4977404;28;20509;-66
2022/01/31 01:15:29;;;;;;;9.02;4.85;;;2.60;76.80;;;;;;4976322;28;20501;-67
2022/01/31 01:17:55;;;;;;;9.80;4.88;;;2.60;77.80;;;;;;4990133;28;20248;-67
2022/01/31 01:20:21;;;;;;;13.65;5.63;;;2.60;76.70;;;;;;4977307;28;20035;-68
2022/01/31 01:22:47;;;;;;;13.18;5.68;;;2.70;77.00;;;;;;4974829;28;20050;-68
2022/01/31 01:25:14;;;;;;;17.30;5.22;;;2.60;76.90;;;;;;4979146;28;20513;-66
2022/01/31 01:27:42;;;;;;;11.73;5.15;;;2.60;76.90;;;;;;4981102;28;20034;-67
2022/01/31 01:30:10;;;;;;;13.40;5.32;;;2.60;77.00;;;;;;4981009;28;20038;-67
2022/01/31 01:32:45;;;;;;;12.07;4.80;;;2.60;77.00;;;;;;4976719;28;20038;-67
2022/01/31 01:35:11;;;;;;;11.35;4.63;;;2.60;77.10;;;;;;4992194;28;20035;-69
2022/01/31 01:37:37;;;;;;;14.35;5.65;;;2.60;77.10;;;;;;4976021;28;20681;-67
2022/01/31 01:40:04;;;;;;;14.85;5.57;;;2.60;77.10;;;;;;4981223;28;20030;-67
2022/01/31 01:42:29;;;;;;;12.73;4.82;;;2.60;77.30;;;;;;4975652;28;20035;-68
2022/01/31 01:44:55;;;;;;;14.93;5.18;;;2.60;77.30;;;;;;4976362;28;20520;-69
2022/01/31 01:47:24;;;;;;;8.77;4.97;;;2.60;77.30;;;;;;4976747;28;20212;-67
2022/01/31 01:49:51;;;;;;;10.80;4.85;;;2.60;77.30;;;;;;4976186;28;20035;-68
2022/01/31 01:52:18;;;;;;;14.27;5.35;;;2.70;77.40;;;;;;4975640;28;20346;-67
2022/01/31 01:54:47;;;;;;;10.52;4.65;;;2.70;77.30;;;;;;4975202;28;21184;-68
2022/01/31 01:57:13;;;;;;;13.88;4.70;;;2.80;77.40;;;;;;4974927;28;20042;-68
2022/01/31 01:59:40;;;;;;;15.32;4.70;;;2.80;77.30;;;;;;4976421;28;20031;-65
2022/01/31 02:02:06;;;;;;;12.70;4.75;;;2.80;77.30;;;;;;4978146;28;20038;-67
2022/01/31 02:04:32;;;;;;;11.65;4.93;;;2.90;77.30;;;;;;4977071;28;20034;-67
2022/01/31 02:06:58;;;;;;;9.45;4.18;;;2.90;77.30;;;;;;4974266;28;20097;-67
2022/01/31 02:09:27;;;;;;;13.43;4.78;;;2.90;77.30;;;;;;4978038;28;20030;-67
2022/01/31 02:11:57;;;;;;;17.17;5.07;;;3.00;77.30;;;;;;4976917;28;20099;-67
2022/01/31 02:14:23;;;;;;;10.50;5.03;;;3.00;77.30;;;;;;4976316;28;20092;-66
2022/01/31 02:16:50;;;;;;;11.60;4.50;;;3.00;77.50;;;;;;4975785;28;20034;-66
2022/01/31 02:19:21;;;;;;;7.20;4.00;;;3.10;77.00;;;;;;4976221;28;20542;-68
2022/01/31 02:21:52;;;;;;;8.80;4.15;;;3.10;76.90;;;;;;4977142;28;20037;-67
2022/01/31 02:24:18;;;;;;;11.88;4.30;;;3.20;76.90;;;;;;4975239;28;20118;-68
2022/01/31 02:26:44;;;;;;;12.82;4.60;;;3.20;76.70;;;;;;4975410;28;20038;-68
2022/01/31 02:29:13;;;;;;;6.63;4.00;;;3.30;76.70;;;;;;4976222;28;20093;-67
2022/01/31 02:31:49;;;;;;;16.10;4.28;;;3.30;76.60;;;;;;4975296;28;20042;-68
2022/01/31 02:34:16;;;;;;;8.32;3.78;;;3.40;76.70;;;;;;4978326;28;20038;-67
2022/01/31 02:36:42;;;;;;;12.38;4.55;;;3.40;76.40;;;;;;4990830;28;20229;-69
2022/01/31 02:39:09;;;;;;;10.63;4.13;;;3.40;76.40;;;;;;4976443;28;20037;-67
2022/01/31 02:41:45;;;;;;;12.55;4.30;;;3.40;76.30;;;;;;4976100;28;20089;-67
2022/01/31 02:44:15;;;;;;;13.32;4.72;;;3.40;76.50;;;;;;4974378;28;20401;-68
2022/01/31 02:46:48;;;;;;;14.70;4.40;;;3.50;76.30;;;;;;4972333;28;20254;-66
2022/01/31 02:49:17;;;;;;;9.63;4.40;;;3.50;77.10;;;;;;4974675;28;20454;-66
2022/01/31 02:51:47;;;;;;;10.45;4.35;;;3.50;76.20;;;;;;4973556;28;20705;-68
2022/01/31 02:54:13;;;;;;;9.70;4.45;;;3.60;76.20;;;;;;4974886;28;20104;-68
2022/01/31 02:56:40;;;;;;;10.63;4.20;;;3.60;76.10;;;;;;4974358;28;20034;-69
2022/01/31 02:59:06;;;;;;;9.65;3.88;;;3.60;76.10;;;;;;4975095;28;21694;-67
2022/01/31 03:01:36;;;;;;;10.77;4.43;;;3.60;76.00;;;;;;4972893;28;20048;-69
2022/01/31 03:04:02;;;;;;;10.45;4.55;;;3.60;76.00;;;;;;4973678;28;20034;-68
2022/01/31 03:06:27;;;;;;;13.50;4.80;;;3.60;75.90;;;;;;4972736;28;21025;-69
2022/01/31 03:08:53;;;;;;;7.43;4.10;;;3.60;75.90;;;;;;4976301;28;20035;-68
2022/01/31 03:11:18;;;;;;;12.13;4.80;;;3.60;75.80;;;;;;4978231;28;20046;-67
2022/01/31 03:13:44;;;;;;;11.32;4.68;;;3.60;75.70;;;;;;4974013;28;20598;-68
2022/01/31 03:16:09;;;;;;;11.27;4.82;;;3.70;75.70;;;;;;4973495;28;20409;-68
2022/01/31 03:18:35;;;;;;;12.70;5.28;;;3.70;75.70;;;;;;4974988;28;20038;-67
2022/01/31 03:21:01;;;;;;;18.05;5.38;;;3.60;75.90;;;;;;4972884;28;20051;-68
2022/01/31 03:23:26;;;;;;;9.57;5.00;;;3.60;76.20;;;;;;4975799;28;20108;-68
2022/01/31 03:25:52;;;;;;;12.50;4.93;;;3.60;76.00;;;;;;4975972;28;20034;-67
2022/01/31 03:28:18;;;;;;;11.65;5.13;;;3.60;76.00;;;;;;4974696;28;20065;-68
2022/01/31 03:30:43;;;;;;;11.88;5.00;;;3.60;76.10;;;;;;4973777;28;20039;-67
2022/01/31 03:33:09;;;;;;;9.38;4.70;;;3.60;76.20;;;;;;4971975;28;20436;-67
2022/01/31 03:35:34;;;;;;;10.80;4.47;;;3.70;76.10;;;;;;4974891;28;20035;-68
2022/01/31 03:38:00;;;;;;;11.13;4.90;;;3.70;76.10;;;;;;4971940;28;20034;-68
2022/01/31 03:40:26;;;;;;;13.18;5.20;;;3.70;76.00;;;;;;4977435;28;20038;-68
2022/01/31 03:42:52;;;;;;;11.65;4.85;;;3.70;76.00;;;;;;4974078;28;20425;-67
2022/01/31 03:45:18;;;;;;;10.40;4.97;;;3.70;75.90;;;;;;4974541;28;20093;-67
2022/01/31 03:47:46;;;;;;;8.95;4.60;;;3.70;75.90;;;;;;4973664;28;20845;-67
2022/01/31 03:50:14;;;;;;;14.10;5.10;;;3.70;75.90;;;;;;4973433;28;20101;-67
2022/01/31 03:52:42;;;;;;;11.43;4.85;;;3.60;75.90;;;;;;4973646;28;20039;-68
2022/01/31 03:55:09;;;;;;;10.88;4.53;;;3.60;76.00;;;;;;4974757;28;20030;-67
2022/01/31 03:57:35;;;;;;;13.00;5.45;;;3.60;76.00;;;;;;4974833;28;20037;-67
2022/01/31 04:00:04;;;;;;;9.88;5.13;;;3.60;77.10;;;;;;4973984;28;20050;-67
2022/01/31 04:02:29;;;;;;;9.82;4.65;;;3.60;76.30;;;;;;4974029;28;20034;-67
2022/01/31 04:04:55;;;;;;;10.85;4.85;;;3.60;76.10;;;;;;4975041;28;20097;-68
2022/01/31 04:07:21;;;;;;;10.60;4.80;;;3.60;76.10;;;;;;4974354;28;20053;-67
2022/01/31 04:09:46;;;;;;;10.60;4.60;;;3.60;76.10;;;;;;4973703;28;20120;-68
2022/01/31 04:12:12;;;;;;;11.93;5.32;;;3.60;76.10;;;;;;4975317;28;20122;-66
2022/01/31 04:14:37;;;;;;;11.07;4.82;;;3.60;76.30;;;;;;4975033;28;20390;-67
2022/01/31 04:17:07;;;;;;;9.70;4.90;;;3.60;76.20;;;;;;4976009;28;20035;-67
2022/01/31 04:19:33;;;;;;;8.05;4.55;;;3.60;76.30;;;;;;4975605;28;20034;-67
2022/01/31 04:21:58;;;;;;;12.00;4.45;;;3.60;76.40;;;;;;4974092;28;20030;-67
2022/01/31 04:24:31;;;;;;;13.88;4.78;;;3.60;76.40;;;;;;4974547;28;20033;-67
2022/01/31 04:26:59;;;;;;;10.68;5.40;;;3.60;76.40;;;;;;4972940;28;20035;-66
2022/01/31 04:29:28;;;;;;;8.98;4.60;;;3.60;76.40;;;;;;4974793;28;20027;-67
2022/01/31 04:31:54;;;;;;;8.13;4.57;;;3.70;76.60;;;;;;4972430;28;20038;-67
2022/01/31 04:34:21;;;;;;;10.63;4.68;;;3.70;76.60;;;;;;4974507;28;20046;-64
2022/01/31 04:36:46;;;;;;;12.20;4.68;;;3.70;76.60;;;;;;4972433;28;20044;-66
2022/01/31 04:39:17;;;;;;;10.93;4.75;;;3.70;76.60;;;;;;4972498;28;20039;-66
2022/01/31 04:41:43;;;;;;;10.32;4.32;;;3.70;76.50;;;;;;4973834;28;20034;-67
2022/01/31 04:44:10;;;;;;;10.40;4.45;;;3.70;76.50;;;;;;4972866;28;20566;-67
2022/01/31 04:46:35;;;;;;;12.27;4.85;;;3.70;76.50;;;;;;4972638;28;20546;-67
2022/01/31 04:49:01;;;;;;;9.88;4.13;;;3.70;76.40;;;;;;4974562;28;20050;-66
2022/01/31 04:51:27;;;;;;;11.32;4.32;;;3.70;76.30;;;;;;4973090;28;20166;-67
2022/01/31 04:53:52;;;;;;;7.22;4.28;;;3.80;76.40;;;;;;4973595;28;20042;-67
2022/01/31 04:56:18;;;;;;;6.80;4.18;;;3.80;76.30;;;;;;4975312;28;20061;-68
2022/01/31 04:58:44;;;;;;;11.07;4.15;;;3.80;76.30;;;;;;4975745;28;20038;-69
2022/01/31 05:01:10;;;;;;;8.57;3.67;;;3.80;76.10;;;;;;4977300;28;20741;-66
2022/01/31 05:03:36;;;;;;;6.60;3.67;;;3.90;76.20;;;;;;4976824;28;20027;-67
2022/01/31 05:06:02;;;;;;;11.68;4.32;;;3.80;76.10;;;;;;4977685;28;20105;-68
2022/01/31 05:08:29;;;;;;;11.75;4.40;;;3.90;76.00;;;;;;4977572;28;20541;-68
2022/01/31 05:10:56;;;;;;;12.63;5.90;;;3.90;76.00;;;;;;4981761;28;20038;-67
2022/01/31 05:13:21;;;;;;;14.18;7.95;;;3.90;76.00;;;;;;4980839;28;20048;-67
2022/01/31 05:15:47;;;;;;;11.13;4.55;;;3.90;76.00;;;;;;4979348;28;20627;-67
2022/01/31 05:18:14;;;;;;;14.48;7.50;;;3.90;75.90;;;;;;4980605;28;20137;-67
2022/01/31 05:20:41;;;;;;;10.50;5.28;;;3.90;75.80;;;;;;4980206;28;20026;-67
2022/01/31 05:23:08;;;;;;;10.38;3.90;;;4.00;75.70;;;;;;4979691;28;20031;-67
2022/01/31 05:25:35;;;;;;;10.18;3.90;;;4.00;75.60;;;;;;4978923;28;20027;-67
2022/01/31 05:28:00;;;;;;;10.43;4.13;;;4.00;75.50;;;;;;4979392;28;20073;-67
2022/01/31 05:30:26;;;;;;;12.18;4.05;;;4.00;75.50;;;;;;4979015;28;20038;-67
2022/01/31 05:32:53;;;;;;;9.77;4.43;;;4.00;75.30;;;;;;4979926;28;20038;-69
2022/01/31 05:35:20;;;;;;;8.50;3.65;;;4.00;75.30;;;;;;4980430;28;20062;-68
2022/01/31 05:37:45;;;;;;;10.55;4.22;;;4.00;75.30;;;;;;4980524;28;20568;-68
2022/01/31 05:40:11;;;;;;;9.43;4.00;;;4.00;75.30;;;;;;4980319;28;20382;-68
2022/01/31 05:42:37;;;;;;;10.18;3.75;;;4.00;75.20;;;;;;4979686;28;20038;-68
2022/01/31 05:45:06;;;;;;;8.88;3.90;;;4.00;75.20;;;;;;4981037;28;20401;-67
2022/01/31 05:47:33;;;;;;;12.10;4.00;;;4.00;75.20;;;;;;4981630;28;20414;-67
2022/01/31 05:49:58;;;;;;;9.27;3.42;;;4.00;75.10;;;;;;4980547;28;20513;-67
2022/01/31 05:52:25;;;;;;;9.80;3.72;;;4.00;75.10;;;;;;4979699;28;20047;-68
2022/01/31 05:54:51;;;;;;;10.13;3.70;;;4.00;75.00;;;;;;4980795;28;20031;-68
2022/01/31 05:57:16;;;;;;;9.15;3.42;;;4.10;75.20;;;;;;4979280;28;20689;-68
2022/01/31 05:59:43;;;;;;;10.75;3.50;;;4.10;75.10;;;;;;4974672;28;20089;-67
2022/01/31 06:02:09;;;;;;;8.68;3.15;;;4.10;75.10;;;;;;4992912;28;20038;-67
2022/01/31 06:04:34;;;;;;;11.18;3.03;;;4.10;75.00;;;;;;4978711;28;20026;-67
2022/01/31 06:07:01;;;;;;;7.43;3.17;;;4.10;75.10;;;;;;4977241;28;20037;-68
2022/01/31 06:09:27;;;;;;;12.35;3.40;;;4.10;75.10;;;;;;4978675;28;20045;-68
2022/01/31 06:11:54;;;;;;;6.43;2.60;;;4.10;75.10;;;;;;4976459;28;20040;-68
2022/01/31 06:14:20;;;;;;;9.05;3.22;;;4.10;75.10;;;;;;4977287;28;20445;-68
2022/01/31 06:16:45;;;;;;;9.88;3.08;;;4.10;75.00;;;;;;4977100;28;20077;-68
2022/01/31 06:19:11;;;;;;;9.32;3.05;;;4.10;75.20;;;;;;4978132;28;20557;-68
2022/01/31 06:21:37;;;;;;;11.65;3.17;;;4.10;75.20;;;;;;4975653;28;20569;-67
2022/01/31 06:24:08;;;;;;;8.82;2.75;;;4.10;75.20;;;;;;4977382;28;20053;-67
2022/01/31 06:26:34;;;;;;;11.65;3.10;;;4.10;75.30;;;;;;4975591;28;20027;-68
2022/01/31 06:29:01;;;;;;;8.38;2.72;;;4.20;75.40;;;;;;4979230;28;20062;-68
2022/01/31 06:31:27;;;;;;;8.32;2.80;;;4.20;75.40;;;;;;4975590;28;20065;-68
2022/01/31 06:33:53;;;;;;;14.20;3.17;;;4.20;75.40;;;;;;4979183;28;20520;-69
2022/01/31 06:36:22;;;;;;;7.05;2.80;;;4.20;75.40;;;;;;4975683;28;20042;-68
2022/01/31 06:38:47;;;;;;;10.70;3.55;;;4.20;75.50;;;;;;4979166;28;20460;-68
2022/01/31 06:41:16;;;;;;;13.10;3.03;;;4.30;75.70;;;;;;4977429;28;20039;-68
2022/01/31 06:43:42;;;;;;;8.40;2.75;;;4.20;75.60;;;;;;4976799;28;20506;-67
2022/01/31 06:46:08;;;;;;;8.15;2.65;;;4.30;75.80;;;;;;4976843;28;20058;-68
2022/01/31 06:48:34;;;;;;;7.18;2.70;;;4.30;75.70;;;;;;4975473;28;20458;-66
2022/01/31 06:51:00;;;;;;;7.50;2.47;;;4.40;75.70;;;;;;4977608;28;20603;-68
2022/01/31 06:53:27;;;;;;;11.02;2.65;;;4.30;75.70;;;;;;4977031;28;20113;-68
2022/01/31 06:55:54;;;;;;;9.90;3.05;;;4.40;75.70;;;;;;4978035;28;20109;-68
2022/01/31 06:58:20;;;;;;;10.23;2.83;;;4.50;75.70;;;;;;4975799;28;22376;-68
2022/01/31 07:00:46;;;;;;;8.80;2.70;;;4.50;75.70;;;;;;4974646;28;20038;-68
2022/01/31 07:03:13;;;;;;;10.48;2.80;;;4.50;75.70;;;;;;4974633;28;20043;-67
2022/01/31 07:05:42;;;;;;;10.35;2.40;;;4.50;75.70;;;;;;4977026;28;20077;-67
2022/01/31 07:08:09;;;;;;;9.10;2.80;;;4.60;75.70;;;;;;4977128;28;20497;-68
2022/01/31 07:10:35;;;;;;;4.97;2.65;;;4.60;75.70;;;;;;4977411;28;20034;-67
2022/01/31 07:13:03;;;;;;;7.63;2.55;;;4.60;75.70;;;;;;4976512;28;20061;-67
2022/01/31 07:15:29;;;;;;;4.80;2.33;;;4.70;75.70;;;;;;4975731;28;20114;-68
2022/01/31 07:17:54;;;;;;;4.65;2.25;;;4.70;75.70;;;;;;4975390;28;20031;-67
2022/01/31 07:20:35;;;;;;;5.63;2.90;;;4.80;75.70;;;;;;4975875;28;20042;-69
2022/01/31 07:23:07;;;;;;;6.15;2.35;;;4.80;75.70;;;;;;4978166;28;20101;-68
2022/01/31 07:25:36;;;;;;;7.53;2.40;;;4.90;75.70;;;;;;4975064;28;20113;-68
2022/01/31 07:28:12;;;;;;;5.35;2.33;;;4.90;75.70;;;;;;4975437;28;20039;-68
2022/01/31 07:30:40;;;;;;;7.28;2.60;;;4.90;75.70;;;;;;4976707;28;20420;-67
2022/01/31 07:33:10;;;;;;;8.23;2.72;;;4.90;75.50;;;;;;4976955;28;20045;-68
2022/01/31 07:35:36;;;;;;;7.03;2.80;;;5.00;75.70;;;;;;4976620;28;20120;-67
2022/01/31 07:38:02;;;;;;;8.70;2.95;;;5.00;75.70;;;;;;4976873;28;20034;-67
2022/01/31 07:40:29;;;;;;;7.57;2.70;;;5.10;75.70;;;;;;4975662;28;20140;-67
2022/01/31 07:42:54;;;;;;;4.82;2.38;;;5.10;75.90;;;;;;4974456;28;20035;-67
2022/01/31 07:45:21;;;;;;;4.70;2.80;;;5.10;75.80;;;;;;4972555;28;20053;-67
2022/01/31 07:47:46;;;;;;;6.63;3.10;;;5.10;76.10;;;;;;4974439;28;20517;-68
2022/01/31 07:50:13;;;;;;;8.32;2.88;;;5.10;76.20;;;;;;4974631;28;20053;-67
2022/01/31 07:52:39;;;;;;;6.70;3.00;;;5.20;76.20;;;;;;4974359;28;20080;-67
2022/01/31 07:55:05;;;;;;;7.07;3.10;;;5.10;76.40;;;;;;4976287;28;20085;-67
2022/01/31 07:57:31;;;;;;;7.93;2.60;;;5.10;76.50;;;;;;4975691;28;20117;-67
2022/01/31 07:59:57;;;;;;;7.63;3.42;;;5.10;76.40;;;;;;4974480;28;20054;-66
2022/01/31 08:02:22;;;;;;;7.55;2.92;;;5.10;76.40;;;;;;4977473;28;20038;-67
2022/01/31 08:04:48;;;;;;;7.03;2.60;;;5.10;76.90;;;;;;4974854;28;20023;-66
2022/01/31 08:07:14;;;;;;;5.10;2.50;;;5.10;76.90;;;;;;4976398;28;20560;-66
2022/01/31 08:09:40;;;;;;;7.80;2.90;;;5.10;77.10;;;;;;4975027;28;20401;-67
2022/01/31 08:12:06;;;;;;;5.60;2.88;;;5.10;77.00;;;;;;4975704;28;20046;-67
2022/01/31 08:14:31;;;;;;;9.02;3.00;;;5.00;77.30;;;;;;4974822;28;20047;-67
2022/01/31 08:16:57;;;;;;;7.38;2.65;;;5.00;77.40;;;;;;4975238;28;20512;-67
2022/01/31 08:19:23;;;;;;;8.43;3.35;;;5.00;77.50;;;;;;4973628;28;20035;-66
2022/01/31 08:21:49;;;;;;;8.63;3.30;;;5.00;77.80;;;;;;4976132;28;20034;-68
2022/01/31 08:24:14;;;;;;;6.53;3.10;;;5.00;77.60;;;;;;4976903;28;20418;-66
2022/01/31 08:26:40;;;;;;;8.25;3.08;;;5.00;78.00;;;;;;4973604;28;20125;-67
2022/01/31 08:29:48;;;;;;;4.65;2.50;;;5.00;78.00;;;;;;4975821;28;20061;-66
2022/01/31 08:31:57;;;;;;;4.75;2.25;;;5.00;77.70;;;;;;4969251;28;20430;-67
2022/01/31 08:35:47;;;;;;;4.13;2.33;;;5.10;77.90;;;;;;4977609;28;20108;-67
2022/01/31 08:37:09;;;;;;;4.63;2.38;;;5.10;78.10;;;;;;4977136;28;20038;-66
2022/01/31 08:39:35;;;;;;;4.32;2.17;;;5.00;78.10;;;;;;4976603;28;20374;-66
2022/01/31 08:42:00;;;;;;;3.33;2.25;;;5.00;78.80;;;;;;4975310;28;20157;-67
2022/01/31 08:44:26;;;;;;;4.53;2.78;;;5.00;78.10;;;;;;4977487;28;20039;-66
2022/01/31 08:46:52;;;;;;;5.50;2.88;;;5.10;78.90;;;;;;4979251;28;20117;-67
2022/01/31 08:49:18;;;;;;;3.22;2.00;;;5.00;78.50;;;;;;4977705;28;20119;-67
2022/01/31 08:51:46;;;;;;;6.00;2.00;;;5.10;78.20;;;;;;4981803;28;20038;-66
2022/01/31 08:54:12;;;;;;;5.50;3.17;;;5.00;78.50;;;;;;4979337;28;20074;-67
2022/01/31 08:56:40;;;;;;;5.57;3.65;;;5.10;78.80;;;;;;4977811;28;20517;-66
2022/01/31 08:59:08;;;;;;;3.45;2.50;;;5.00;79.50;;;;;;4978924;28;20129;-67
2022/01/31 09:01:34;;;;;;;2.88;2.08;;;5.00;79.50;;;;;;4977717;28;20039;-64
2022/01/31 09:04:01;;;;;;;4.15;2.45;;;5.00;78.50;;;;;;4978504;28;20042;-67
2022/01/31 09:06:29;;;;;;;5.25;2.35;;;5.00;78.40;;;;;;4981757;28;20115;-66
2022/01/31 09:08:57;;;;;;;6.53;3.72;;;5.00;78.50;;;;;;4986490;28;20034;-67
2022/01/31 09:11:24;;;;;;;10.45;6.07;;;4.90;78.60;;;;;;4976464;28;20038;-67
2022/01/31 09:13:50;;;;;;;10.05;6.43;;;4.90;78.40;;;;;;4979288;28;20129;-69
2022/01/31 09:16:16;;;;;;;6.63;3.33;;;4.80;78.40;;;;;;4978825;28;20513;-67
2022/01/31 09:18:42;;;;;;;5.60;2.90;;;4.80;78.30;;;;;;4980040;28;20058;-68
2022/01/31 09:21:08;;;;;;;4.80;2.60;;;4.80;78.30;;;;;;4979870;28;20034;-68
2022/01/31 09:23:34;;;;;;;3.95;2.50;;;4.70;78.50;;;;;;4980754;28;20121;-67
2022/01/31 09:26:00;;;;;;;2.70;2.17;;;4.70;78.60;;;;;;4995875;28;20117;-67
2022/01/31 09:28:26;;;;;;;2.55;2.35;;;4.60;78.80;;;;;;4981701;28;20058;-68
2022/01/31 09:30:53;;;;;;;3.13;2.60;;;4.60;79.00;;;;;;4978497;28;20063;-68
2022/01/31 09:33:19;;;;;;;3.60;3.00;;;4.50;79.10;;;;;;4981143;28;20089;-67
2022/01/31 09:35:46;;;;;;;3.58;2.60;;;4.50;79.50;;;;;;4981685;28;20038;-68
2022/01/31 09:38:13;;;;;;;3.10;2.33;;;4.50;79.50;;;;;;4980131;28;20035;-67
2022/01/31 09:40:40;;;;;;;2.50;2.25;;;4.50;79.50;;;;;;4981541;28;20425;-67
2022/01/31 09:51:06;;;;;;;2.70;2.00;;;4.40;80.30;;;;;;4977462;28;20096;-68
2022/01/31 09:53:35;;;;;;;4.25;2.40;;;4.40;80.40;;;;;;4976089;28;20046;-67
2022/01/31 09:56:00;;;;;;;3.55;2.10;;;4.40;81.10;;;;;;4975948;28;20038;-68
2022/01/31 09:58:29;;;;;;;3.28;2.80;;;4.40;80.90;;;;;;4978756;28;20463;-68
2022/01/31 10:01:15;;;;;;;3.33;2.25;;;4.50;81.20;;;;;;4977328;28;20030;-67
2022/01/31 10:03:44;;;;;;;5.03;2.20;;;4.50;82.80;;;;;;4977824;28;20073;-67
2022/01/31 10:06:22;;;;;;;3.03;2.20;;;4.50;82.50;;;;;;4977216;28;20030;-68
2022/01/31 10:09:07;;;;;;;2.08;1.55;;;4.50;82.30;;;;;;4977612;28;20038;-67
2022/01/31 10:11:45;;;;;;;;;;;4.60;82.10;;;;;;4979183;28;20064;-66
2022/01/31 10:16:56;;;;;;;3.10;2.15;;;4.70;82.10;;;;;;4978353;28;20038;-67
2022/01/31 10:19:22;;;;;;;2.10;1.77;;;4.80;82.10;;;;;;4976599;28;20042;-67
2022/01/31 10:21:57;;;;;;;2.30;2.10;;;4.80;82.50;;;;;;4978085;28;20560;-66
2022/01/31 10:24:24;;;;;;;2.13;1.92;;;4.80;83.20;;;;;;4979068;28;20046;-67
2022/01/31 10:26:50;;;;;;;1.67;1.52;;;4.90;82.80;;;;;;4977375;28;20035;-68
2022/01/31 10:29:18;;;;;;;1.88;1.45;;;4.90;82.60;;;;;;4977644;28;20038;-67
2022/01/31 10:32:13;;;;;;;1.73;1.48;;;5.00;82.90;;;;;;4977999;28;20030;-67
2022/01/31 10:34:54;;;;;;;1.77;1.55;;;5.10;83.60;;;;;;4972602;28;20513;-67
2022/01/31 10:37:22;;;;;;;2.13;1.70;;;5.10;82.90;;;;;;4977028;28;20498;-68
2022/01/31 10:54:24;;;;;;;1.95;0.90;;;5.50;81.80;;;;;;4935277;28;20093;-67
2022/01/31 10:56:52;;;;;;;1.85;1.00;;;5.60;81.40;;;;;;4965752;28;20038;-66
2022/01/31 10:59:20;;;;;;;2.17;1.15;;;5.70;81.20;;;;;;4978443;28;20382;-67
2022/01/31 11:01:48;;;;;;;1.60;1.50;;;5.70;81.10;;;;;;4976138;28;20040;-68
2022/01/31 11:04:15;;;;;;;2.03;1.27;;;5.90;81.50;;;;;;4977057;28;20030;-67
2022/01/31 11:06:47;;;;;;;2.08;1.10;;;5.90;81.60;;;;;;4976361;28;20035;-67
2022/01/31 11:09:18;;;;;;;2.20;0.70;;;6.00;81.30;;;;;;4977265;28;20628;-66
2022/01/31 11:11:46;;;;;;;1.35;0.70;;;6.10;80.70;;;;;;4976280;28;20046;-67
2022/01/31 11:14:13;;;;;;;0.80;0.60;;;6.30;80.30;;;;;;4977892;28;20572;-67
2022/01/31 11:16:42;;;;;;;0.63;0.50;;;6.30;80.00;;;;;;4977384;28;20044;-67
2022/01/31 11:19:09;;;;;;;0.95;0.60;;;6.40;79.00;;;;;;4977253;28;20121;-68
2022/01/31 11:21:43;;;;;;;0.63;0.40;;;6.40;78.30;;;;;;4975343;28;20513;-67
2022/01/31 11:24:19;;;;;;;0.93;0.65;;;6.40;78.00;;;;;;4978404;28;20035;-67
2022/01/31 11:26:58;;;;;;;0.70;0.60;;;6.50;78.50;;;;;;4975505;28;20154;-66
2022/01/31 11:29:24;;;;;;;1.23;0.73;;;6.40;77.30;;;;;;4977152;28;20046;-67
2022/01/31 11:31:50;;;;;;;2.45;0.70;;;6.50;77.20;;;;;;4976448;28;20045;-67
2022/01/31 11:34:16;;;;;;;1.65;0.70;;;6.40;75.50;;;;;;4976727;28;20041;-67
2022/01/31 11:36:43;;;;;;;2.47;0.45;;;6.40;76.20;;;;;;4978062;28;20446;-67
2022/01/31 11:39:14;;;;;;;1.00;0.90;;;6.40;74.10;;;;;;4980090;28;20405;-67
2022/01/31 11:41:50;;;;;;;1.27;0.77;;;6.40;74.50;;;;;;4975962;28;20438;-67
2022/01/31 11:44:38;;;;;;;1.67;0.70;;;6.30;74.00;;;;;;4976531;28;20039;-67
2022/01/31 11:47:06;;;;;;;1.73;0.60;;;6.30;72.90;;;;;;4978150;28;20045;-67
2022/01/31 11:50:01;;;;;;;2.40;0.50;;;6.30;72.20;;;;;;4990544;28;20080;-67
2022/01/31 11:52:32;;;;;;;1.23;0.65;;;6.20;72.60;;;;;;4976529;28;20101;-67
2022/01/31 11:55:01;;;;;;;1.83;0.68;;;6.20;74.00;;;;;;4976973;28;20058;-67
2022/01/31 11:57:29;;;;;;;1.05;0.95;;;6.20;74.60;;;;;;4975715;28;20054;-68
2022/01/31 12:00:16;;;;;;;3.25;0.82;;;6.10;74.60;;;;;;4975896;28;20059;-67
2022/01/31 12:02:43;;;;;;;1.23;0.60;;;6.10;74.70;;;;;;4974456;28;20022;-68
2022/01/31 12:05:16;;;;;;;1.15;0.80;;;6.00;74.40;;;;;;4975756;28;20032;-67
2022/01/31 12:08:01;;;;;;;1.05;0.70;;;6.00;74.60;;;;;;4977337;28;20042;-67
2022/01/31 12:10:34;;;;;;;4.80;0.60;;;6.00;74.70;;;;;;4975311;28;20401;-68
2022/01/31 12:13:15;;;;;;;3.45;0.57;;;6.00;75.00;;;;;;4977583;28;20062;-68
2022/01/31 12:24:21;;;;;;;2.53;0.70;;;6.20;73.50;;;;;;4981060;28;20413;-68
2022/01/31 12:26:51;;;;;;;2.97;0.80;;;6.30;73.00;;;;;;4981007;28;20551;-67
2022/01/31 12:29:28;;;;;;;1.08;0.60;;;6.30;71.70;;;;;;4980784;28;20070;-68
2022/01/31 12:31:58;;;;;;;3.15;0.80;;;6.40;70.80;;;;;;4980278;28;20035;-68
2022/01/31 12:34:24;;;;;;;3.42;1.40;;;6.50;70.40;;;;;;4981155;28;20535;-68
2022/01/31 12:36:50;;;;;;;2.95;1.40;;;6.50;70.60;;;;;;4979833;28;20038;-68
2022/01/31 12:39:31;;;;;;;3.25;0.80;;;6.50;71.30;;;;;;4980379;28;20031;-68
2022/01/31 12:42:15;;;;;;;2.00;0.70;;;6.50;70.40;;;;;;4980413;28;20101;-67
2022/01/31 12:44:42;;;;;;;2.58;0.70;;;6.50;70.10;;;;;;4980608;28;20055;-68
2022/01/31 12:47:15;;;;;;;2.00;0.90;;;6.60;70.70;;;;;;4979006;28;20030;-68
2022/01/31 12:49:41;;;;;;;1.55;0.50;;;6.60;70.20;;;;;;4979968;28;20497;-68
2022/01/31 12:52:08;;;;;;;1.25;0.70;;;6.60;70.60;;;;;;4981812;28;20048;-68
2022/01/31 12:54:36;;;;;;;1.70;0.90;;;6.60;69.90;;;;;;4982344;28;20041;-69
2022/01/31 12:57:07;;;;;;;1.38;0.70;;;6.60;69.90;;;;;;4981726;28;20038;-68
2022/01/31 12:59:33;;;;;;;4.07;1.02;;;6.60;69.60;;;;;;4981663;28;20096;-66
2022/01/31 13:02:05;;;;;;;1.75;0.77;;;6.60;69.30;;;;;;4979841;28;20035;-68
2022/01/31 13:04:30;;;;;;;1.17;0.52;;;6.50;68.40;;;;;;4979735;28;20034;-68
2022/01/31 13:06:59;;;;;;;2.47;1.15;;;6.50;68.40;;;;;;4978757;28;20559;-69
2022/01/31 13:09:29;;;;;;;2.80;1.00;;;6.50;68.70;;;;;;4980042;28;20089;-68
2022/01/31 13:12:23;;;;;;;1.77;0.90;;;6.50;68.40;;;;;;4978037;28;20046;-68
2022/01/31 13:14:50;;;;;;;2.17;1.40;;;6.40;67.50;;;;;;4979378;28;20034;-69
2022/01/31 13:17:21;;;;;;;3.42;1.50;;;6.40;68.40;;;;;;4979693;28;20041;-68
2022/01/31 13:19:48;;;;;;;3.00;0.85;;;6.40;68.90;;;;;;4976929;28;20035;-68
2022/01/31 13:22:39;;;;;;;4.15;1.08;;;6.40;68.20;;;;;;4979270;28;20523;-68
2022/01/31 13:25:10;;;;;;;3.95;1.23;;;6.30;68.20;;;;;;4976983;28;20125;-69
2022/01/31 13:27:40;;;;;;;3.22;1.33;;;6.30;68.80;;;;;;4978787;28;20042;-69
2022/01/31 13:30:20;;;;;;;2.25;1.00;;;6.30;68.70;;;;;;4978847;28;20072;-69
2022/01/31 13:32:47;;;;;;;2.85;0.82;;;6.30;68.70;;;;;;4976965;28;20122;-69